sensor_id;sensor_type;location;lat;lon;timestamp;temperature;humidity
71672;DHT22;62112;45.638;11.714;2023-02-07T00:00:42;18.40;67.90
71672;DHT22;62112;45.638;11.714;2023-02-07T00:03:08;18.40;67.80
71672;DHT22;62112;45.638;11.714;2023-02-07T00:05:34;18.40;68.00
71672;DHT22;62112;45.638;11.714;2023-02-07T00:08:02;18.50;68.10
71672;DHT22;62112;45.638;11.714;2023-02-07T00:10:28;18.40;67.50
71672;DHT22;62112;45.638;11.714;2023-02-07T00:12:54;18.40;67.90
71672;DHT22;62112;45.638;11.714;2023-02-07T00:15:20;18.40;67.70
71672;DHT22;62112;45.638;11.714;2023-02-07T00:17:45;18.40;67.80
71672;DHT22;62112;45.638;11.714;2023-02-07T00:20:11;18.40;67.40
71672;DHT22;62112;45.638;11.714;2023-02-07T00:22:37;18.40;67.30
71672;DHT22;62112;45.638;11.714;2023-02-07T00:25:04;18.40;67.40
71672;DHT22;62112;45.638;11.714;2023-02-07T00:27:30;18.40;67.50
71672;DHT22;62112;45.638;11.714;2023-02-07T00:29:55;18.40;67.60
71672;DHT22;62112;45.638;11.714;2023-02-07T00:32:21;18.30;67.60
71672;DHT22;62112;45.638;11.714;2023-02-07T00:34:47;18.40;67.40
71672;DHT22;62112;45.638;11.714;2023-02-07T00:37:15;18.40;67.30
71672;DHT22;62112;45.638;11.714;2023-02-07T00:39:41;18.40;67.40
71672;DHT22;62112;45.638;11.714;2023-02-07T00:42:07;18.40;67.30
71672;DHT22;62112;45.638;11.714;2023-02-07T00:44:33;18.40;67.30
71672;DHT22;62112;45.638;11.714;2023-02-07T00:46:59;18.20;67.50
71672;DHT22;62112;45.638;11.714;2023-02-07T00:49:25;18.20;67.20
71672;DHT22;62112;45.638;11.714;2023-02-07T00:51:51;18.30;67.10
71672;DHT22;62112;45.638;11.714;2023-02-07T00:54:17;18.20;67.40
71672;DHT22;62112;45.638;11.714;2023-02-07T00:56:43;18.40;67.50
71672;DHT22;62112;45.638;11.714;2023-02-07T00:59:09;18.30;67.60
71672;DHT22;62112;45.638;11.714;2023-02-07T01:01:35;18.30;67.30
71672;DHT22;62112;45.638;11.714;2023-02-07T01:04:01;18.30;67.20
71672;DHT22;62112;45.638;11.714;2023-02-07T01:06:27;18.30;67.10
71672;DHT22;62112;45.638;11.714;2023-02-07T01:08:57;18.30;67.20
71672;DHT22;62112;45.638;11.714;2023-02-07T01:11:24;18.20;66.80
71672;DHT22;62112;45.638;11.714;2023-02-07T01:13:50;18.30;67.20
71672;DHT22;62112;45.638;11.714;2023-02-07T01:16:25;18.20;66.90
71672;DHT22;62112;45.638;11.714;2023-02-07T01:18:51;18.30;67.30
71672;DHT22;62112;45.638;11.714;2023-02-07T01:21:20;18.30;66.90
71672;DHT22;62112;45.638;11.714;2023-02-07T01:23:47;18.20;66.80
71672;DHT22;62112;45.638;11.714;2023-02-07T01:26:13;18.30;66.90
71672;DHT22;62112;45.638;11.714;2023-02-07T01:28:39;18.20;66.70
71672;DHT22;62112;45.638;11.714;2023-02-07T01:31:10;18.20;67.10
71672;DHT22;62112;45.638;11.714;2023-02-07T01:33:37;18.30;66.80
71672;DHT22;62112;45.638;11.714;2023-02-07T01:36:09;18.30;67.00
71672;DHT22;62112;45.638;11.714;2023-02-07T01:38:36;18.20;67.00
71672;DHT22;62112;45.638;11.714;2023-02-07T01:41:02;18.20;67.20
71672;DHT22;62112;45.638;11.714;2023-02-07T01:43:29;18.20;66.70
71672;DHT22;62112;45.638;11.714;2023-02-07T01:45:55;18.20;66.90
71672;DHT22;62112;45.638;11.714;2023-02-07T01:48:31;18.30;66.70
71672;DHT22;62112;45.638;11.714;2023-02-07T01:51:00;18.10;71.10
71672;DHT22;62112;45.638;11.714;2023-02-07T01:53:29;18.30;66.60
71672;DHT22;62112;45.638;11.714;2023-02-07T01:55:58;18.20;66.70
71672;DHT22;62112;45.638;11.714;2023-02-07T01:58:27;18.20;66.80
71672;DHT22;62112;45.638;11.714;2023-02-07T02:00:54;18.20;66.80
71672;DHT22;62112;45.638;11.714;2023-02-07T02:03:19;18.30;66.50
71672;DHT22;62112;45.638;11.714;2023-02-07T02:05:47;18.20;66.60
71672;DHT22;62112;45.638;11.714;2023-02-07T02:08:14;18.20;66.80
71672;DHT22;62112;45.638;11.714;2023-02-07T02:10:47;18.10;71.00
71672;DHT22;62112;45.638;11.714;2023-02-07T02:13:35;18.20;66.80
71672;DHT22;62112;45.638;11.714;2023-02-07T02:19:45;18.10;70.90
71672;DHT22;62112;45.638;11.714;2023-02-07T02:22:50;18.10;70.90
71672;DHT22;62112;45.638;11.714;2023-02-07T02:28:42;18.10;70.80
71672;DHT22;62112;45.638;11.714;2023-02-07T02:33:54;18.10;70.80
71672;DHT22;62112;45.638;11.714;2023-02-07T02:42:10;18.00;70.70
71672;DHT22;62112;45.638;11.714;2023-02-07T02:44:48;18.10;70.80
71672;DHT22;62112;45.638;11.714;2023-02-07T02:47:18;18.10;70.70
71672;DHT22;62112;45.638;11.714;2023-02-07T02:49:45;18.20;66.30
71672;DHT22;62112;45.638;11.714;2023-02-07T02:52:11;18.10;70.70
71672;DHT22;62112;45.638;11.714;2023-02-07T02:54:39;18.10;70.80
71672;DHT22;62112;45.638;11.714;2023-02-07T02:57:15;18.00;70.90
71672;DHT22;62112;45.638;11.714;2023-02-07T03:05:12;18.10;70.70
71672;DHT22;62112;45.638;11.714;2023-02-07T03:08:09;18.00;70.80
71672;DHT22;62112;45.638;11.714;2023-02-07T03:10:56;18.00;70.70
71672;DHT22;62112;45.638;11.714;2023-02-07T03:13:44;17.90;70.80
71672;DHT22;62112;45.638;11.714;2023-02-07T03:16:23;18.10;70.70
71672;DHT22;62112;45.638;11.714;2023-02-07T03:19:11;18.10;70.60
71672;DHT22;62112;45.638;11.714;2023-02-07T03:21:53;18.10;70.80
71672;DHT22;62112;45.638;11.714;2023-02-07T03:24:28;18.00;70.70
71672;DHT22;62112;45.638;11.714;2023-02-07T03:27:03;18.10;70.70
71672;DHT22;62112;45.638;11.714;2023-02-07T03:29:31;17.90;70.60
71672;DHT22;62112;45.638;11.714;2023-02-07T03:32:01;17.90;70.70
71672;DHT22;62112;45.638;11.714;2023-02-07T03:34:34;18.00;70.70
71672;DHT22;62112;45.638;11.714;2023-02-07T03:37:07;17.90;70.70
71672;DHT22;62112;45.638;11.714;2023-02-07T03:39:35;18.10;70.70
71672;DHT22;62112;45.638;11.714;2023-02-07T03:42:09;17.90;70.80
71672;DHT22;62112;45.638;11.714;2023-02-07T03:44:41;17.90;70.60
71672;DHT22;62112;45.638;11.714;2023-02-07T03:47:07;17.80;70.70
71672;DHT22;62112;45.638;11.714;2023-02-07T03:49:34;18.00;70.60
71672;DHT22;62112;45.638;11.714;2023-02-07T03:51:59;18.00;70.70
71672;DHT22;62112;45.638;11.714;2023-02-07T03:54:25;17.90;70.60
71672;DHT22;62112;45.638;11.714;2023-02-07T03:56:51;17.90;70.70
71672;DHT22;62112;45.638;11.714;2023-02-07T03:59:17;17.90;70.60
71672;DHT22;62112;45.638;11.714;2023-02-07T04:01:44;17.80;70.60
71672;DHT22;62112;45.638;11.714;2023-02-07T04:04:10;17.90;70.60
71672;DHT22;62112;45.638;11.714;2023-02-07T04:06:37;17.90;70.60
71672;DHT22;62112;45.638;11.714;2023-02-07T04:09:03;17.90;70.60
71672;DHT22;62112;45.638;11.714;2023-02-07T04:11:31;17.70;70.60
71672;DHT22;62112;45.638;11.714;2023-02-07T04:13:57;17.90;70.60
71672;DHT22;62112;45.638;11.714;2023-02-07T04:16:23;17.80;70.70
71672;DHT22;62112;45.638;11.714;2023-02-07T04:18:49;17.80;70.70
71672;DHT22;62112;45.638;11.714;2023-02-07T04:21:15;17.80;70.60
71672;DHT22;62112;45.638;11.714;2023-02-07T04:23:43;17.80;67.00
71672;DHT22;62112;45.638;11.714;2023-02-07T04:26:12;17.80;66.80
71672;DHT22;62112;45.638;11.714;2023-02-07T04:28:37;17.90;66.90
71672;DHT22;62112;45.638;11.714;2023-02-07T04:31:08;17.90;70.60
71672;DHT22;62112;45.638;11.714;2023-02-07T04:33:37;17.70;70.80
71672;DHT22;62112;45.638;11.714;2023-02-07T04:36:04;17.80;66.90
71672;DHT22;62112;45.638;11.714;2023-02-07T04:38:31;17.70;70.70
71672;DHT22;62112;45.638;11.714;2023-02-07T04:41:02;17.70;70.60
71672;DHT22;62112;45.638;11.714;2023-02-07T04:43:34;17.80;67.00
71672;DHT22;62112;45.638;11.714;2023-02-07T04:46:03;17.80;70.60
71672;DHT22;62112;45.638;11.714;2023-02-07T04:48:30;17.70;66.90
71672;DHT22;62112;45.638;11.714;2023-02-07T04:50:59;17.80;67.00
71672;DHT22;62112;45.638;11.714;2023-02-07T04:53:27;17.70;70.70
71672;DHT22;62112;45.638;11.714;2023-02-07T04:55:55;17.70;70.70
71672;DHT22;62112;45.638;11.714;2023-02-07T04:58:23;17.80;66.80
71672;DHT22;62112;45.638;11.714;2023-02-07T05:00:49;17.70;66.70
71672;DHT22;62112;45.638;11.714;2023-02-07T05:03:15;17.60;70.60
71672;DHT22;62112;45.638;11.714;2023-02-07T05:05:42;17.70;66.90
71672;DHT22;62112;45.638;11.714;2023-02-07T05:08:08;17.70;66.80
71672;DHT22;62112;45.638;11.714;2023-02-07T05:10:35;17.70;66.90
71672;DHT22;62112;45.638;11.714;2023-02-07T05:13:01;17.70;66.80
71672;DHT22;62112;45.638;11.714;2023-02-07T05:15:27;17.70;66.90
71672;DHT22;62112;45.638;11.714;2023-02-07T05:17:53;17.70;66.60
71672;DHT22;62112;45.638;11.714;2023-02-07T05:20:19;17.70;66.90
71672;DHT22;62112;45.638;11.714;2023-02-07T05:22:45;17.70;66.60
71672;DHT22;62112;45.638;11.714;2023-02-07T05:25:11;17.70;66.80
71672;DHT22;62112;45.638;11.714;2023-02-07T05:27:36;17.60;66.70
71672;DHT22;62112;45.638;11.714;2023-02-07T05:30:03;17.60;66.70
71672;DHT22;62112;45.638;11.714;2023-02-07T05:32:29;17.70;66.70
71672;DHT22;62112;45.638;11.714;2023-02-07T05:35:14;17.60;66.80
71672;DHT22;62112;45.638;11.714;2023-02-07T05:37:39;17.60;66.90
71672;DHT22;62112;45.638;11.714;2023-02-07T05:40:05;17.60;66.80
71672;DHT22;62112;45.638;11.714;2023-02-07T05:42:31;17.60;66.70
71672;DHT22;62112;45.638;11.714;2023-02-07T05:44:57;17.60;66.70
71672;DHT22;62112;45.638;11.714;2023-02-07T05:47:23;17.70;66.70
71672;DHT22;62112;45.638;11.714;2023-02-07T05:49:49;17.60;66.50
71672;DHT22;62112;45.638;11.714;2023-02-07T05:52:15;17.70;66.80
71672;DHT22;62112;45.638;11.714;2023-02-07T05:54:41;17.60;66.90
71672;DHT22;62112;45.638;11.714;2023-02-07T05:57:07;17.60;66.80
71672;DHT22;62112;45.638;11.714;2023-02-07T05:59:33;17.60;66.80
71672;DHT22;62112;45.638;11.714;2023-02-07T06:01:59;17.50;66.70
71672;DHT22;62112;45.638;11.714;2023-02-07T06:04:25;17.60;66.70
71672;DHT22;62112;45.638;11.714;2023-02-07T06:06:51;17.60;66.40
71672;DHT22;62112;45.638;11.714;2023-02-07T06:09:16;17.60;66.70
71672;DHT22;62112;45.638;11.714;2023-02-07T06:11:42;17.50;66.60
71672;DHT22;62112;45.638;11.714;2023-02-07T06:14:08;17.60;66.60
71672;DHT22;62112;45.638;11.714;2023-02-07T06:16:34;17.60;66.10
71672;DHT22;62112;45.638;11.714;2023-02-07T06:19:00;17.60;66.20
71672;DHT22;62112;45.638;11.714;2023-02-07T06:21:26;17.50;66.40
71672;DHT22;62112;45.638;11.714;2023-02-07T06:23:51;17.50;66.50
71672;DHT22;62112;45.638;11.714;2023-02-07T06:26:17;17.50;66.70
71672;DHT22;62112;45.638;11.714;2023-02-07T06:28:43;17.60;66.70
71672;DHT22;62112;45.638;11.714;2023-02-07T06:31:09;17.60;66.70
71672;DHT22;62112;45.638;11.714;2023-02-07T06:33:35;17.50;66.70
71672;DHT22;62112;45.638;11.714;2023-02-07T06:36:01;17.50;66.50
71672;DHT22;62112;45.638;11.714;2023-02-07T06:38:27;17.50;66.30
71672;DHT22;62112;45.638;11.714;2023-02-07T06:40:53;17.50;66.70
71672;DHT22;62112;45.638;11.714;2023-02-07T06:43:19;17.50;66.20
71672;DHT22;62112;45.638;11.714;2023-02-07T06:45:44;17.50;66.70
71672;DHT22;62112;45.638;11.714;2023-02-07T06:48:10;17.50;66.90
71672;DHT22;62112;45.638;11.714;2023-02-07T06:50:37;17.50;66.30
71672;DHT22;62112;45.638;11.714;2023-02-07T06:53:02;17.60;66.70
71672;DHT22;62112;45.638;11.714;2023-02-07T06:55:30;17.50;66.80
71672;DHT22;62112;45.638;11.714;2023-02-07T06:57:56;17.60;70.70
71672;DHT22;62112;45.638;11.714;2023-02-07T07:00:23;17.60;70.80
71672;DHT22;62112;45.638;11.714;2023-02-07T07:02:52;17.50;71.20
71672;DHT22;62112;45.638;11.714;2023-02-07T07:05:20;17.60;71.80
71672;DHT22;62112;45.638;11.714;2023-02-07T07:07:47;17.50;72.20
71672;DHT22;62112;45.638;11.714;2023-02-07T07:10:13;17.60;72.70
71672;DHT22;62112;45.638;11.714;2023-02-07T07:12:39;17.50;72.80
71672;DHT22;62112;45.638;11.714;2023-02-07T07:15:05;17.60;73.00
71672;DHT22;62112;45.638;11.714;2023-02-07T07:17:36;17.60;73.20
71672;DHT22;62112;45.638;11.714;2023-02-07T07:20:04;17.70;73.30
71672;DHT22;62112;45.638;11.714;2023-02-07T07:22:34;17.70;73.00
71672;DHT22;62112;45.638;11.714;2023-02-07T07:25:01;17.70;72.90
71672;DHT22;62112;45.638;11.714;2023-02-07T07:27:32;17.70;73.00
71672;DHT22;62112;45.638;11.714;2023-02-07T07:30:03;17.70;72.80
71672;DHT22;62112;45.638;11.714;2023-02-07T07:32:30;17.80;72.30
71672;DHT22;62112;45.638;11.714;2023-02-07T07:34:59;17.90;72.20
71672;DHT22;62112;45.638;11.714;2023-02-07T07:37:26;17.90;72.10
71672;DHT22;62112;45.638;11.714;2023-02-07T07:39:56;18.00;71.90
71672;DHT22;62112;45.638;11.714;2023-02-07T07:42:25;18.00;71.70
71672;DHT22;62112;45.638;11.714;2023-02-07T07:44:52;18.00;71.50
71672;DHT22;62112;45.638;11.714;2023-02-07T07:47:20;18.10;71.50
71672;DHT22;62112;45.638;11.714;2023-02-07T07:49:47;18.10;71.20
71672;DHT22;62112;45.638;11.714;2023-02-07T07:52:14;18.00;71.20
71672;DHT22;62112;45.638;11.714;2023-02-07T07:54:40;18.20;66.80
71672;DHT22;62112;45.638;11.714;2023-02-07T07:57:06;18.30;66.50
71672;DHT22;62112;45.638;11.714;2023-02-07T07:59:32;18.50;66.20
71672;DHT22;62112;45.638;11.714;2023-02-07T08:01:58;18.50;65.90
71672;DHT22;62112;45.638;11.714;2023-02-07T08:04:24;18.50;65.50
71672;DHT22;62112;45.638;11.714;2023-02-07T08:06:50;18.60;64.90
71672;DHT22;62112;45.638;11.714;2023-02-07T08:09:16;18.80;64.70
71672;DHT22;62112;45.638;11.714;2023-02-07T08:11:42;18.90;64.10
71672;DHT22;62112;45.638;11.714;2023-02-07T08:14:08;19.00;64.00
71672;DHT22;62112;45.638;11.714;2023-02-07T08:16:34;18.90;64.10
71672;DHT22;62112;45.638;11.714;2023-02-07T08:19:00;19.10;63.30
71672;DHT22;62112;45.638;11.714;2023-02-07T08:21:26;19.10;63.00
71672;DHT22;62112;45.638;11.714;2023-02-07T08:23:52;19.30;62.70
71672;DHT22;62112;45.638;11.714;2023-02-07T08:26:18;19.30;62.60
71672;DHT22;62112;45.638;11.714;2023-02-07T08:28:44;19.40;61.70
71672;DHT22;62112;45.638;11.714;2023-02-07T08:31:10;19.40;61.70
71672;DHT22;62112;45.638;11.714;2023-02-07T08:33:36;19.50;61.70
71672;DHT22;62112;45.638;11.714;2023-02-07T08:36:03;19.50;61.10
71672;DHT22;62112;45.638;11.714;2023-02-07T08:38:33;19.70;60.80
71672;DHT22;62112;45.638;11.714;2023-02-07T08:40:59;19.80;61.00
71672;DHT22;62112;45.638;11.714;2023-02-07T08:43:24;19.80;60.60
71672;DHT22;62112;45.638;11.714;2023-02-07T08:45:51;19.90;60.10
71672;DHT22;62112;45.638;11.714;2023-02-07T08:48:18;19.90;60.30
71672;DHT22;62112;45.638;11.714;2023-02-07T08:50:44;19.90;60.20
71672;DHT22;62112;45.638;11.714;2023-02-07T08:53:10;20.00;59.90
71672;DHT22;62112;45.638;11.714;2023-02-07T08:55:39;20.10;59.60
71672;DHT22;62112;45.638;11.714;2023-02-07T08:58:05;20.10;59.60
71672;DHT22;62112;45.638;11.714;2023-02-07T09:00:31;20.20;59.90
71672;DHT22;62112;45.638;11.714;2023-02-07T09:03:02;20.30;59.40
71672;DHT22;62112;45.638;11.714;2023-02-07T09:05:35;20.30;59.10
71672;DHT22;62112;45.638;11.714;2023-02-07T09:08:02;20.30;58.80
71672;DHT22;62112;45.638;11.714;2023-02-07T09:10:29;20.40;59.20
71672;DHT22;62112;45.638;11.714;2023-02-07T09:12:55;20.40;58.80
71672;DHT22;62112;45.638;11.714;2023-02-07T09:15:21;20.40;58.70
71672;DHT22;62112;45.638;11.714;2023-02-07T09:17:47;20.50;59.00
71672;DHT22;62112;45.638;11.714;2023-02-07T09:20:14;20.50;58.60
71672;DHT22;62112;45.638;11.714;2023-02-07T09:22:40;20.50;58.80
71672;DHT22;62112;45.638;11.714;2023-02-07T09:25:41;20.60;58.50
71672;DHT22;62112;45.638;11.714;2023-02-07T09:28:08;20.60;58.60
71672;DHT22;62112;45.638;11.714;2023-02-07T09:30:34;20.60;58.30
71672;DHT22;62112;45.638;11.714;2023-02-07T09:33:00;20.70;58.30
71672;DHT22;62112;45.638;11.714;2023-02-07T09:35:26;20.70;58.30
71672;DHT22;62112;45.638;11.714;2023-02-07T09:37:53;20.70;58.00
71672;DHT22;62112;45.638;11.714;2023-02-07T09:40:20;20.70;58.10
71672;DHT22;62112;45.638;11.714;2023-02-07T09:42:56;20.80;57.90
71672;DHT22;62112;45.638;11.714;2023-02-07T09:45:30;20.80;57.80
71672;DHT22;62112;45.638;11.714;2023-02-07T09:48:26;20.90;57.90
71672;DHT22;62112;45.638;11.714;2023-02-07T09:50:59;20.90;56.80
71672;DHT22;62112;45.638;11.714;2023-02-07T09:53:47;20.80;57.10
71672;DHT22;62112;45.638;11.714;2023-02-07T09:56:15;20.90;55.90
71672;DHT22;62112;45.638;11.714;2023-02-07T09:58:51;21.00;56.60
71672;DHT22;62112;45.638;11.714;2023-02-07T10:01:21;20.90;56.20
71672;DHT22;62112;45.638;11.714;2023-02-07T10:06:47;21.00;56.00
71672;DHT22;62112;45.638;11.714;2023-02-07T10:09:18;21.20;56.00
71672;DHT22;62112;45.638;11.714;2023-02-07T10:23:00;21.20;55.80
71672;DHT22;62112;45.638;11.714;2023-02-07T10:25:37;21.10;55.10
71672;DHT22;62112;45.638;11.714;2023-02-07T10:30:51;21.20;55.10
71672;DHT22;62112;45.638;11.714;2023-02-07T10:33:22;21.20;55.30
71672;DHT22;62112;45.638;11.714;2023-02-07T10:35:49;21.20;55.70
71672;DHT22;62112;45.638;11.714;2023-02-07T10:38:37;21.20;55.80
71672;DHT22;62112;45.638;11.714;2023-02-07T10:41:30;21.30;55.40
71672;DHT22;62112;45.638;11.714;2023-02-07T10:43:58;21.20;55.30
71672;DHT22;62112;45.638;11.714;2023-02-07T10:46:24;21.30;55.30
71672;DHT22;62112;45.638;11.714;2023-02-07T10:48:52;21.20;55.70
71672;DHT22;62112;45.638;11.714;2023-02-07T10:51:47;21.20;55.40
71672;DHT22;62112;45.638;11.714;2023-02-07T10:54:21;21.20;54.50
71672;DHT22;62112;45.638;11.714;2023-02-07T10:56:57;21.20;55.20
71672;DHT22;62112;45.638;11.714;2023-02-07T10:59:37;21.30;55.00
71672;DHT22;62112;45.638;11.714;2023-02-07T11:04:55;21.30;55.00
71672;DHT22;62112;45.638;11.714;2023-02-07T11:07:21;21.30;55.40
71672;DHT22;62112;45.638;11.714;2023-02-07T11:09:48;21.30;55.40
71672;DHT22;62112;45.638;11.714;2023-02-07T11:12:22;21.30;55.20
71672;DHT22;62112;45.638;11.714;2023-02-07T11:15:02;21.30;55.30
71672;DHT22;62112;45.638;11.714;2023-02-07T11:17:29;21.30;55.60
71672;DHT22;62112;45.638;11.714;2023-02-07T11:20:04;21.30;56.00
71672;DHT22;62112;45.638;11.714;2023-02-07T11:22:31;21.30;55.70
71672;DHT22;62112;45.638;11.714;2023-02-07T11:25:03;21.30;55.80
71672;DHT22;62112;45.638;11.714;2023-02-07T11:27:38;21.30;55.70
71672;DHT22;62112;45.638;11.714;2023-02-07T11:30:08;21.30;55.80
71672;DHT22;62112;45.638;11.714;2023-02-07T11:32:35;21.30;56.20
71672;DHT22;62112;45.638;11.714;2023-02-07T11:35:07;21.30;56.10
71672;DHT22;62112;45.638;11.714;2023-02-07T11:37:38;21.30;55.90
71672;DHT22;62112;45.638;11.714;2023-02-07T11:42:47;21.30;56.30
71672;DHT22;62112;45.638;11.714;2023-02-07T11:45:16;21.30;56.30
71672;DHT22;62112;45.638;11.714;2023-02-07T11:47:45;21.20;56.20
71672;DHT22;62112;45.638;11.714;2023-02-07T11:50:22;21.30;56.20
71672;DHT22;62112;45.638;11.714;2023-02-07T11:52:54;21.20;56.10
71672;DHT22;62112;45.638;11.714;2023-02-07T11:55:26;21.10;56.00
71672;DHT22;62112;45.638;11.714;2023-02-07T11:57:57;21.10;56.50
71672;DHT22;62112;45.638;11.714;2023-02-07T12:00:27;21.20;56.60
71672;DHT22;62112;45.638;11.714;2023-02-07T12:03:01;21.10;56.20
71672;DHT22;62112;45.638;11.714;2023-02-07T12:05:32;21.00;56.40
71672;DHT22;62112;45.638;11.714;2023-02-07T12:08:11;21.10;56.30
71672;DHT22;62112;45.638;11.714;2023-02-07T12:10:39;21.00;56.40
71672;DHT22;62112;45.638;11.714;2023-02-07T12:13:26;21.00;56.70
71672;DHT22;62112;45.638;11.714;2023-02-07T12:15:58;20.90;56.30
71672;DHT22;62112;45.638;11.714;2023-02-07T12:18:32;21.10;56.20
71672;DHT22;62112;45.638;11.714;2023-02-07T12:26:05;20.90;56.70
71672;DHT22;62112;45.638;11.714;2023-02-07T12:31:28;20.90;57.90
71672;DHT22;62112;45.638;11.714;2023-02-07T12:39:47;20.80;57.90
71672;DHT22;62112;45.638;11.714;2023-02-07T12:42:41;20.70;58.40
71672;DHT22;62112;45.638;11.714;2023-02-07T12:45:15;20.70;58.00
71672;DHT22;62112;45.638;11.714;2023-02-07T12:47:45;20.70;58.30
71672;DHT22;62112;45.638;11.714;2023-02-07T12:50:44;20.70;58.30
71672;DHT22;62112;45.638;11.714;2023-02-07T12:53:29;20.70;58.10
71672;DHT22;62112;45.638;11.714;2023-02-07T12:59:19;20.50;57.70
71672;DHT22;62112;45.638;11.714;2023-02-07T13:07:51;20.50;58.70
71672;DHT22;62112;45.638;11.714;2023-02-07T13:10:28;20.50;58.30
71672;DHT22;62112;45.638;11.714;2023-02-07T13:16:03;20.40;58.40
71672;DHT22;62112;45.638;11.714;2023-02-07T13:21:34;20.40;58.60
71672;DHT22;62112;45.638;11.714;2023-02-07T13:24:06;20.30;59.00
71672;DHT22;62112;45.638;11.714;2023-02-07T13:26:34;20.40;58.80
71672;DHT22;62112;45.638;11.714;2023-02-07T13:29:12;20.30;58.40
71672;DHT22;62112;45.638;11.714;2023-02-07T13:31:54;20.30;58.70
71672;DHT22;62112;45.638;11.714;2023-02-07T13:34:28;20.20;59.10
71672;DHT22;62112;45.638;11.714;2023-02-07T13:36:55;20.20;58.70
71672;DHT22;62112;45.638;11.714;2023-02-07T13:39:36;20.20;58.90
71672;DHT22;62112;45.638;11.714;2023-02-07T13:42:34;20.20;59.10
71672;DHT22;62112;45.638;11.714;2023-02-07T13:45:21;20.20;58.70
71672;DHT22;62112;45.638;11.714;2023-02-07T13:48:14;20.10;58.80
71672;DHT22;62112;45.638;11.714;2023-02-07T13:53:50;20.10;59.40
71672;DHT22;62112;45.638;11.714;2023-02-07T13:56:32;20.10;59.40
71672;DHT22;62112;45.638;11.714;2023-02-07T13:59:36;20.00;59.70
71672;DHT22;62112;45.638;11.714;2023-02-07T14:02:19;20.00;59.60
71672;DHT22;62112;45.638;11.714;2023-02-07T14:04:56;20.00;59.20
71672;DHT22;62112;45.638;11.714;2023-02-07T14:07:31;19.90;59.40
71672;DHT22;62112;45.638;11.714;2023-02-07T14:10:00;19.90;59.50
71672;DHT22;62112;45.638;11.714;2023-02-07T14:12:38;20.00;59.30
71672;DHT22;62112;45.638;11.714;2023-02-07T14:18:41;19.80;59.70
71672;DHT22;62112;45.638;11.714;2023-02-07T14:21:21;19.90;59.90
71672;DHT22;62112;45.638;11.714;2023-02-07T14:31:59;19.80;60.20
71672;DHT22;62112;45.638;11.714;2023-02-07T14:35:02;19.70;60.00
71672;DHT22;62112;45.638;11.714;2023-02-07T14:37:39;19.70;60.20
71672;DHT22;62112;45.638;11.714;2023-02-07T14:48:30;19.60;60.10
71672;DHT22;62112;45.638;11.714;2023-02-07T14:50:57;19.60;60.30
71672;DHT22;62112;45.638;11.714;2023-02-07T14:53:23;19.50;60.10
71672;DHT22;62112;45.638;11.714;2023-02-07T14:55:52;19.50;60.20
71672;DHT22;62112;45.638;11.714;2023-02-07T14:58:41;19.50;60.20
71672;DHT22;62112;45.638;11.714;2023-02-07T15:01:13;19.50;60.30
71672;DHT22;62112;45.638;11.714;2023-02-07T15:03:41;19.50;60.30
71672;DHT22;62112;45.638;11.714;2023-02-07T15:06:18;19.50;60.50
71672;DHT22;62112;45.638;11.714;2023-02-07T15:08:58;19.40;60.40
71672;DHT22;62112;45.638;11.714;2023-02-07T15:11:27;19.40;60.90
71672;DHT22;62112;45.638;11.714;2023-02-07T15:13:57;19.50;60.50
71672;DHT22;62112;45.638;11.714;2023-02-07T15:16:27;19.40;60.50
71672;DHT22;62112;45.638;11.714;2023-02-07T15:19:05;19.40;60.60
71672;DHT22;62112;45.638;11.714;2023-02-07T15:21:37;19.30;60.50
71672;DHT22;62112;45.638;11.714;2023-02-07T15:24:06;19.30;60.50
71672;DHT22;62112;45.638;11.714;2023-02-07T15:26:34;19.30;61.00
71672;DHT22;62112;45.638;11.714;2023-02-07T15:29:06;19.30;60.60
71672;DHT22;62112;45.638;11.714;2023-02-07T15:31:41;19.20;61.10
71672;DHT22;62112;45.638;11.714;2023-02-07T15:34:15;19.30;60.70
71672;DHT22;62112;45.638;11.714;2023-02-07T15:36:43;19.20;60.90
71672;DHT22;62112;45.638;11.714;2023-02-07T15:39:17;19.20;60.30
71672;DHT22;62112;45.638;11.714;2023-02-07T16:37:52;9.70;35.60
71672;DHT22;62112;45.638;11.714;2023-02-07T16:40:19;9.70;36.00
71672;DHT22;62112;45.638;11.714;2023-02-07T16:42:47;9.80;36.10
71672;DHT22;62112;45.638;11.714;2023-02-07T16:45:25;9.90;36.00
71672;DHT22;62112;45.638;11.714;2023-02-07T16:47:52;9.70;35.60
71672;DHT22;62112;45.638;11.714;2023-02-07T16:50:24;9.60;36.60
71672;DHT22;62112;45.638;11.714;2023-02-07T16:52:52;9.40;37.40
71672;DHT22;62112;45.638;11.714;2023-02-07T16:55:19;9.30;38.40
71672;DHT22;62112;45.638;11.714;2023-02-07T16:57:47;9.10;38.70
71672;DHT22;62112;45.638;11.714;2023-02-07T17:00:19;9.00;38.60
71672;DHT22;67659;45.554;11.812;2023-02-07T17:02:50;8.80;39.10
71672;DHT22;67659;45.554;11.812;2023-02-07T17:05:18;8.70;39.00
71672;DHT22;67659;45.554;11.812;2023-02-07T17:07:44;8.70;39.60
71672;DHT22;67659;45.554;11.812;2023-02-07T17:10:28;8.60;40.50
71672;DHT22;67659;45.554;11.812;2023-02-07T17:12:54;8.50;41.20
71672;DHT22;67659;45.554;11.812;2023-02-07T17:15:21;8.30;41.40
71672;DHT22;67659;45.554;11.812;2023-02-07T17:17:47;8.10;41.10
71672;DHT22;67659;45.554;11.812;2023-02-07T17:20:24;8.20;40.80
71672;DHT22;67659;45.554;11.812;2023-02-07T17:22:51;8.10;41.70
71672;DHT22;67659;45.554;11.812;2023-02-07T17:25:18;7.90;42.10
71672;DHT22;67659;45.554;11.812;2023-02-07T17:27:44;7.80;42.20
71672;DHT22;67659;45.554;11.812;2023-02-07T17:30:37;7.90;42.10
71672;DHT22;67659;45.554;11.812;2023-02-07T17:33:04;7.80;43.00
71672;DHT22;67659;45.554;11.812;2023-02-07T17:35:30;7.50;43.20
71672;DHT22;67659;45.554;11.812;2023-02-07T17:37:56;7.30;43.40
71672;DHT22;67659;45.554;11.812;2023-02-07T17:42:48;7.20;43.40
71672;DHT22;67659;45.554;11.812;2023-02-07T17:45:14;7.10;43.90
71672;DHT22;67659;45.554;11.812;2023-02-07T17:47:40;7.10;43.80
71672;DHT22;67659;45.554;11.812;2023-02-07T17:50:09;7.10;44.60
71672;DHT22;67659;45.554;11.812;2023-02-07T17:52:35;6.90;44.40
71672;DHT22;67659;45.554;11.812;2023-02-07T17:55:02;6.90;43.50
71672;DHT22;67659;45.554;11.812;2023-02-07T17:57:29;6.80;43.80
71672;DHT22;67659;45.554;11.812;2023-02-07T17:59:55;6.70;44.40
71672;DHT22;67659;45.554;11.812;2023-02-07T18:02:22;6.70;44.50
71672;DHT22;67659;45.554;11.812;2023-02-07T18:04:49;6.60;44.80
71672;DHT22;67659;45.554;11.812;2023-02-07T18:07:22;6.60;44.90
71672;DHT22;67659;45.554;11.812;2023-02-07T18:09:51;6.60;44.60